GLD1440 SSPL-SBCH
Flight info
| Callsign | GLD1440 |
|---|---|
| Flight time | 0h 31m |
| Altitude | 7500 |
| Route | 2736S05304W |
| Aircraft | BE58/L-SDFGIRY/S |
Departure
| Time | 2026-05-01 13:12 |
|---|---|
| Airport | Palmeira das Missões Airport (SSPL) |
Arrival
| Time | 2026-05-01 13:43 |
|---|---|
| Airport | Serafin Enoss Bertaso Airport (SBCH) |
| Time | Latitude | Longitude | Altitude | Speed | Heading |
|---|---|---|---|---|---|
| 2026-05-01 13:01 | -27.90445 | -53.33217 | 2081 ft | 0 kts | 314° |
| 2026-05-01 13:10 | -27.90443 | -53.33220 | 2085 ft | 5 kts | 287° |
| 2026-05-01 13:10 | -27.90486 | -53.33290 | 2082 ft | 14 kts | 224° |
| 2026-05-01 13:10 | -27.90523 | -53.33369 | 2087 ft | 11 kts | 313° |
| 2026-05-01 13:11 | -27.90503 | -53.33366 | 2087 ft | 0 kts | 41° |
| 2026-05-01 13:11 | -27.90471 | -53.33332 | 2087 ft | 32 kts | 43° |
| 2026-05-01 13:12 | -27.90116 | -53.32927 | 2104 ft | 103 kts | 43° |
| 2026-05-01 13:12 | -27.89568 | -53.32268 | 2283 ft | 125 kts | 45° |
| 2026-05-01 13:12 | -27.88989 | -53.31527 | 2660 ft | 125 kts | 44° |
| 2026-05-01 13:12 | -27.88462 | -53.30727 | 2918 ft | 121 kts | 41° |
| 2026-05-01 13:13 | -27.87819 | -53.30381 | 2911 ft | 101 kts | 356° |
| 2026-05-01 13:13 | -27.87448 | -53.31025 | 2611 ft | 127 kts | 252° |
| 2026-05-01 13:13 | -27.88145 | -53.31514 | 2393 ft | 117 kts | 193° |
| 2026-05-01 13:13 | -27.88916 | -53.31774 | 2327 ft | 118 kts | 203° |
| 2026-05-01 13:14 | -27.89581 | -53.32306 | 2141 ft | 111 kts | 232° |
| 2026-05-01 13:14 | -27.90044 | -53.32853 | 2085 ft | 82 kts | 226° |
| 2026-05-01 13:14 | -27.90398 | -53.33248 | 2087 ft | 63 kts | 224° |
| 2026-05-01 13:14 | -27.90540 | -53.33412 | 2086 ft | 13 kts | 50° |
| 2026-05-01 13:15 | -27.90481 | -53.33338 | 2087 ft | 0 kts | 44° |
| 2026-05-01 13:15 | -27.90480 | -53.33337 | 2087 ft | 0 kts | 45° |
| 2026-05-01 13:18 | -27.90445 | -53.33300 | 2086 ft | 36 kts | 44° |
| 2026-05-01 13:18 | -27.90082 | -53.32888 | 2105 ft | 104 kts | 43° |
| 2026-05-01 13:18 | -27.89522 | -53.32243 | 2315 ft | 124 kts | 43° |
| 2026-05-01 13:18 | -27.88847 | -53.31518 | 2371 ft | 145 kts | 34° |
| 2026-05-01 13:19 | -27.87965 | -53.30881 | 2478 ft | 149 kts | 31° |
| 2026-05-01 13:19 | -27.87159 | -53.30206 | 2734 ft | 141 kts | 35° |
| 2026-05-01 13:19 | -27.85657 | -53.28883 | 3205 ft | 137 kts | 31° |
| 2026-05-01 13:20 | -27.84889 | -53.28205 | 3435 ft | 143 kts | 31° |
| 2026-05-01 13:20 | -27.84097 | -53.27493 | 3673 ft | 148 kts | 29° |
| 2026-05-01 13:20 | -27.83269 | -53.26780 | 3914 ft | 152 kts | 32° |
| 2026-05-01 13:21 | -27.81559 | -53.25257 | 4400 ft | 157 kts | 32° |
| 2026-05-01 13:21 | -27.80710 | -53.24503 | 4652 ft | 157 kts | 33° |
| 2026-05-01 13:21 | -27.79839 | -53.23734 | 4897 ft | 161 kts | 32° |
| 2026-05-01 13:21 | -27.78956 | -53.22956 | 5130 ft | 160 kts | 32° |
| 2026-05-01 13:22 | -27.78086 | -53.22178 | 5358 ft | 159 kts | 32° |
| 2026-05-01 13:22 | -27.77222 | -53.21406 | 5600 ft | 158 kts | 33° |
| 2026-05-01 13:22 | -27.76360 | -53.20644 | 5846 ft | 155 kts | 31° |
| 2026-05-01 13:22 | -27.75505 | -53.19900 | 6086 ft | 157 kts | 34° |
| 2026-05-01 13:23 | -27.74659 | -53.19137 | 6323 ft | 155 kts | 33° |
| 2026-05-01 13:23 | -27.73809 | -53.18386 | 6560 ft | 154 kts | 33° |
| 2026-05-01 13:23 | -27.72978 | -53.17660 | 6784 ft | 150 kts | 33° |
| 2026-05-01 13:23 | -27.72151 | -53.16933 | 7011 ft | 151 kts | 33° |
| 2026-05-01 13:24 | -27.71344 | -53.16217 | 7237 ft | 148 kts | 31° |
| 2026-05-01 13:24 | -27.70534 | -53.15498 | 7465 ft | 148 kts | 32° |
| 2026-05-01 13:24 | -27.69704 | -53.14780 | 7503 ft | 153 kts | 33° |
| 2026-05-01 13:25 | -27.67906 | -53.13180 | 7523 ft | 175 kts | 33° |
| 2026-05-01 13:25 | -27.66941 | -53.12321 | 7520 ft | 176 kts | 32° |
| 2026-05-01 13:25 | -27.65955 | -53.11459 | 7513 ft | 181 kts | 32° |
| 2026-05-01 13:25 | -27.64967 | -53.10600 | 7518 ft | 184 kts | 33° |
| 2026-05-01 13:26 | -27.63962 | -53.09679 | 7517 ft | 187 kts | 33° |
| 2026-05-01 13:26 | -27.62936 | -53.08765 | 7524 ft | 189 kts | 34° |
| 2026-05-01 13:26 | -27.61903 | -53.07846 | 7510 ft | 187 kts | 33° |
| 2026-05-01 13:26 | -27.60866 | -53.06938 | 7510 ft | 188 kts | 33° |
| 2026-05-01 13:27 | -27.59819 | -53.06022 | 7505 ft | 192 kts | 32° |
| 2026-05-01 13:27 | -27.58771 | -53.05118 | 7501 ft | 189 kts | 32° |
| 2026-05-01 13:27 | -27.56668 | -53.03312 | 7401 ft | 194 kts | 32° |
| 2026-05-01 13:28 | -27.54544 | -53.01494 | 7168 ft | 186 kts | 32° |
| 2026-05-01 13:28 | -27.53531 | -53.00624 | 7050 ft | 184 kts | 32° |
| 2026-05-01 13:29 | -27.51522 | -52.98891 | 6809 ft | 179 kts | 33° |
| 2026-05-01 13:29 | -27.49519 | -52.97161 | 6577 ft | 180 kts | 32° |
| 2026-05-01 13:30 | -27.45502 | -52.93702 | 6084 ft | 179 kts | 33° |
| 2026-05-01 13:31 | -27.43533 | -52.92020 | 5840 ft | 177 kts | 33° |
| 2026-05-01 13:31 | -27.40933 | -52.89788 | 5543 ft | 177 kts | 32° |
| 2026-05-01 13:32 | -27.38959 | -52.88083 | 5301 ft | 179 kts | 32° |
| 2026-05-01 13:33 | -27.36028 | -52.85574 | 4955 ft | 177 kts | 32° |
| 2026-05-01 13:33 | -27.34016 | -52.83843 | 4722 ft | 184 kts | 32° |
| 2026-05-01 13:34 | -27.32057 | -52.82161 | 4470 ft | 171 kts | 32° |
| 2026-05-01 13:34 | -27.30148 | -52.80533 | 4220 ft | 170 kts | 33° |
| 2026-05-01 13:35 | -27.28291 | -52.78931 | 3969 ft | 167 kts | 31° |
| 2026-05-01 13:35 | -27.27375 | -52.78152 | 3880 ft | 165 kts | 32° |
| 2026-05-01 13:35 | -27.25528 | -52.76574 | 3626 ft | 167 kts | 32° |
| 2026-05-01 13:36 | -27.24612 | -52.75782 | 3517 ft | 163 kts | 33° |
| 2026-05-01 13:36 | -27.23728 | -52.75023 | 3521 ft | 157 kts | 33° |
| 2026-05-01 13:36 | -27.22002 | -52.73546 | 3513 ft | 157 kts | 33° |
| 2026-05-01 13:37 | -27.21138 | -52.72806 | 3498 ft | 155 kts | 32° |
| 2026-05-01 13:37 | -27.20278 | -52.72089 | 3495 ft | 150 kts | 34° |
| 2026-05-01 13:37 | -27.19464 | -52.71379 | 3495 ft | 147 kts | 33° |
| 2026-05-01 13:37 | -27.18648 | -52.70683 | 3496 ft | 146 kts | 32° |
| 2026-05-01 13:38 | -27.17085 | -52.69352 | 3496 ft | 128 kts | 31° |
| 2026-05-01 13:38 | -27.16391 | -52.68767 | 3498 ft | 126 kts | 33° |
| 2026-05-01 13:38 | -27.15700 | -52.68171 | 3484 ft | 121 kts | 35° |
| 2026-05-01 13:39 | -27.15100 | -52.67495 | 3489 ft | 122 kts | 41° |
| 2026-05-01 13:39 | -27.14540 | -52.66825 | 3486 ft | 113 kts | 39° |
| 2026-05-01 13:39 | -27.14032 | -52.66199 | 3466 ft | 103 kts | 40° |
| 2026-05-01 13:39 | -27.13627 | -52.65640 | 3473 ft | 84 kts | 43° |
| 2026-05-01 13:40 | -27.13141 | -52.65479 | 3421 ft | 84 kts | 333° |
| 2026-05-01 13:40 | -27.12982 | -52.66172 | 3523 ft | 111 kts | 277° |
| 2026-05-01 13:40 | -27.13004 | -52.67075 | 3558 ft | 122 kts | 285° |
| 2026-05-01 13:40 | -27.12819 | -52.67978 | 3543 ft | 119 kts | 303° |
| 2026-05-01 13:41 | -27.12436 | -52.68724 | 3499 ft | 106 kts | 317° |
| 2026-05-01 13:41 | -27.11936 | -52.69335 | 3307 ft | 108 kts | 330° |
| 2026-05-01 13:41 | -27.11500 | -52.69954 | 3279 ft | 102 kts | 288° |
| 2026-05-01 13:41 | -27.11867 | -52.70669 | 3092 ft | 117 kts | 205° |
| 2026-05-01 13:42 | -27.12598 | -52.70592 | 2999 ft | 102 kts | 120° |
| 2026-05-01 13:42 | -27.12832 | -52.69868 | 2805 ft | 102 kts | 78° |
| 2026-05-01 13:42 | -27.12851 | -52.69107 | 2645 ft | 100 kts | 92° |
| 2026-05-01 13:42 | -27.13028 | -52.68339 | 2510 ft | 98 kts | 91° |
| 2026-05-01 13:43 | -27.13134 | -52.67609 | 2338 ft | 93 kts | 81° |
| 2026-05-01 13:43 | -27.13233 | -52.66900 | 2167 ft | 88 kts | 86° |
| 2026-05-01 13:43 | -27.13328 | -52.66269 | 2123 ft | 72 kts | 90° |
| 2026-05-01 13:43 | -27.13389 | -52.65827 | 2121 ft | 48 kts | 105° |
| 2026-05-01 13:44 | -27.13389 | -52.65714 | 2120 ft | 15 kts | 246° |
| 2026-05-01 13:44 | -27.13396 | -52.65801 | 2121 ft | 8 kts | 277° |
| 2026-05-01 13:44 | -27.13391 | -52.65868 | 2121 ft | 11 kts | 283° |
| 2026-05-01 13:44 | -27.13373 | -52.65980 | 2123 ft | 16 kts | 282° |
| 2026-05-01 13:45 | -27.13342 | -52.66103 | 2123 ft | 15 kts | 323° |
| 2026-05-01 13:45 | -27.13308 | -52.66106 | 2123 ft | 0 kts | 6° |
| 2026-05-01 13:45 | -27.13306 | -52.66106 | 2123 ft | 2 kts | 6° |
| 2026-05-01 13:45 | -27.13265 | -52.66096 | 2121 ft | 8 kts | 16° |
| 2026-05-01 13:46 | -27.13261 | -52.66053 | 2121 ft | 7 kts | 123° |
| 2026-05-01 13:46 | -27.13284 | -52.65990 | 2122 ft | 10 kts | 87° |
| 2026-05-01 13:46 | -27.13239 | -52.65984 | 2121 ft | 0 kts | 249° |